Farmington, UT (84025)

2:58 AM MST on January 20, 2017 (GMT -0700)
Mouth of Farmington Canyon | | Change Station
Active Advisory: Dense Fog Advisory

Elev 4541 ft 41.00 °N, 111.89 °W | Updated 27 seconds ago

Fog
Fog
29.8 °F
Feels Like 30 °F
N
0.0
Wind Variable Wind from South

Today
High -- | Low -- °F
--% Chance of Precip.
Yesterday
High -- | Low -- °F
Precip. -- in
Pressure 29.64 in
Visibility 0.2 miles
Clouds
Windchill 30 °F
Dew Point 30 °F
Humidity 99%
Rainfall 0.00 in
Snow Depth Not available.
7:47 AM 5:30 PM
Last Quarter, 45% visible
SPECI KHIF 200953Z AUTO 26004KT 1/4SM R14/1000FT FZFG VV001 M01/M02 A2964 RMK AO2 FZDZE18
Pressure 29.64 in
Visibility 0.2 miles
Clouds
Windchill 30 °F
Dew Point 30 °F
Humidity 99%
Rainfall 0.00 in
Snow Depth Not available.
7:47 AM 5:30 PM
Last Quarter, 45% visible
SPECI KHIF 200953Z AUTO 26004KT 1/4SM R14/1000FT FZFG VV001 M01/M02 A2964 RMK AO2 FZDZE18

Get Your Daily Forecast Email!

Thanks for signing up!

Be on the lookout for a verification email in your inbox.

You'll start receiving the daily forecast at 8 AM.

×

10-Day Weather Forecast

Almanac

Astronomy

Jan. 20, 2017 Rise Set
Actual Time
Civil Twilight
Nautical Twilight
Astronomical Twilight
Moon
Length of Visible Light
Length of Day
Tomorrow will be .
, % of the Moon is Illuminated

Today's Extremes

State Highs State Lows

Community

WunderPhotos

Upload Photos

1,962,540 photos uploaded!

WunderBlog® & News

Nearby

Air Quality

  Air Quality AQ Index Pollutant
Not available.

Snow Depth

Station Depth Elevation

Earthquake Activity

City Distance Mag. Time & Date
Minimum magnitude displayed is 2.5.

Coastal Water Temperatures

Place Temperature

Stations

Nearby Weather Stations

Station Location Temp. Windchill Dew Point Humidity Wind Precip. Elev Updated Type
                   

Watches & Warnings

Dense Fog Advisory
Issued: 12:08 AM MST Jan. 20, 2017 – National Weather Service

... Dense fog advisory in effect until 10 am MST this morning...

The National Weather Service in Salt Lake City has issued a dense
fog advisory... which is in effect until 10 am MST this morning.

* Affected area... the Salt Lake and Tooele valleys as well as the
northern Wasatch front.

* Visibilities... less than one quarter mile... and locally less
than 200 feet.

* Timing... continuing through sunrise before the fog gradually
dissipates.

* Impacts... dense fog will greatly reduce visibility across the
area. Snow grains falling out of this fog will also result in
areas of slick roadways... particularly along secondary streets.
Use caution when driving overnight through Friday morning.

Precautionary/preparedness actions...

A dense fog advisory means visibilities will frequently be
reduced to less than one quarter mile. If driving... slow down...
use your headlights... and leave plenty of distance ahead of you.



For more information from NOAA/National Weather Service visit...
http://weather.Gov/saltlakecity